createdAt,value
2023-04-15T00:01:41.950Z,2.60
2023-04-15T00:04:09.210Z,2.60
2023-04-15T00:06:37.839Z,2.60
2023-04-15T00:09:05.385Z,2.50
2023-04-15T00:11:32.603Z,2.40
2023-04-15T00:13:59.799Z,2.40
2023-04-15T00:16:27.136Z,2.50
2023-04-15T00:18:54.462Z,2.40
2023-04-15T00:21:21.920Z,2.40
2023-04-15T00:23:49.038Z,2.40
2023-04-15T00:26:16.253Z,2.40
2023-04-15T00:28:43.572Z,2.50
2023-04-15T00:31:11.098Z,2.50
2023-04-15T00:33:38.578Z,2.50
2023-04-15T00:36:07.725Z,2.40
2023-04-15T00:38:34.954Z,2.40
2023-04-15T00:41:03.702Z,2.40
2023-04-15T00:43:30.917Z,2.40
2023-04-15T00:46:01.124Z,2.40
2023-04-15T00:48:29.165Z,2.40
2023-04-15T00:50:56.333Z,2.30
2023-04-15T00:53:23.815Z,2.40
2023-04-15T00:55:51.227Z,2.50
2023-04-15T00:58:19.407Z,2.40
2023-04-15T01:00:47.231Z,2.40
2023-04-15T01:03:14.608Z,2.40
2023-04-15T01:05:41.902Z,2.40
2023-04-15T01:08:09.117Z,2.40
2023-04-15T01:10:36.665Z,2.40
2023-04-15T01:13:04.402Z,2.40
2023-04-15T01:15:31.803Z,2.40
2023-04-15T01:18:00.208Z,2.30
2023-04-15T01:20:28.935Z,2.40
2023-04-15T01:22:56.679Z,2.40
2023-04-15T01:25:34.303Z,2.40
2023-04-15T01:28:02.089Z,2.30
2023-04-15T01:30:29.544Z,2.30
2023-04-15T01:32:56.805Z,2.30
2023-04-15T01:35:24.325Z,2.30
2023-04-15T01:37:51.971Z,2.30
2023-04-15T01:40:19.421Z,2.40
2023-04-15T01:42:46.932Z,2.30
2023-04-15T01:45:14.195Z,2.40
2023-04-15T01:47:41.686Z,2.40
2023-04-15T01:50:09.577Z,2.40
2023-04-15T01:52:36.797Z,2.40
2023-04-15T01:55:04.462Z,2.30
2023-04-15T01:57:31.678Z,2.30
2023-04-15T01:59:58.890Z,2.30
2023-04-15T02:02:26.183Z,2.30
2023-04-15T02:04:53.341Z,2.40
2023-04-15T02:07:20.567Z,2.40
2023-04-15T02:09:47.898Z,2.40
2023-04-15T02:12:15.093Z,2.40
2023-04-15T02:14:42.284Z,2.40
2023-04-15T02:17:09.538Z,2.40
2023-04-15T02:19:36.838Z,2.30
2023-04-15T02:22:04.516Z,2.40
2023-04-15T02:24:32.067Z,2.40
2023-04-15T02:26:59.424Z,2.40
2023-04-15T02:29:26.782Z,2.40
2023-04-15T02:31:54.150Z,2.40
2023-04-15T02:34:21.509Z,2.30
2023-04-15T02:36:48.727Z,2.30
2023-04-15T02:39:15.933Z,2.40
2023-04-15T02:41:43.504Z,2.30
2023-04-15T02:44:11.452Z,2.30
2023-04-15T02:46:38.779Z,2.40
2023-04-15T02:49:06.237Z,2.30
2023-04-15T02:51:33.472Z,2.40
2023-04-15T02:54:00.627Z,2.40
2023-04-15T02:56:27.996Z,2.30
2023-04-15T02:58:55.293Z,2.30
2023-04-15T03:01:22.542Z,2.40
2023-04-15T03:03:49.923Z,2.40
2023-04-15T03:06:17.238Z,2.40
2023-04-15T03:08:44.433Z,2.30
2023-04-15T03:11:11.665Z,2.20
2023-04-15T03:13:38.988Z,2.20
2023-04-15T03:16:06.990Z,2.20
2023-04-15T03:18:34.318Z,2.40
2023-04-15T03:21:01.689Z,2.30
2023-04-15T03:23:29.179Z,2.40
2023-04-15T03:25:56.386Z,2.30
2023-04-15T03:28:24.279Z,2.20
2023-04-15T03:30:51.504Z,2.20
2023-04-15T03:33:18.732Z,2.20
2023-04-15T03:35:46.039Z,2.30
2023-04-15T03:38:13.264Z,2.40
2023-04-15T03:40:44.426Z,2.40
2023-04-15T03:43:11.743Z,2.30
2023-04-15T03:45:39.161Z,2.20
2023-04-15T03:48:16.466Z,2.30
2023-04-15T03:50:44.858Z,2.20
2023-04-15T03:53:12.231Z,2.20
2023-04-15T03:55:39.488Z,2.20
2023-04-15T03:58:06.712Z,2.20
2023-04-15T04:00:33.937Z,2.30
2023-04-15T04:03:01.279Z,2.30
2023-04-15T04:05:29.060Z,2.40
2023-04-15T04:07:56.567Z,2.40
2023-04-15T04:10:23.806Z,2.40
2023-04-15T04:12:51.162Z,2.40
2023-04-15T04:15:18.480Z,2.30
2023-04-15T04:17:45.993Z,2.20
2023-04-15T04:20:13.425Z,2.30
2023-04-15T04:22:41.335Z,2.30
2023-04-15T04:25:09.920Z,2.40
2023-04-15T04:27:37.513Z,2.40
2023-04-15T04:30:06.479Z,2.30
2023-04-15T04:32:33.746Z,2.30
2023-04-15T04:35:00.950Z,2.30
2023-04-15T04:37:28.211Z,2.30
2023-04-15T04:39:55.432Z,2.30
2023-04-15T04:42:23.086Z,2.30
2023-04-15T04:44:50.385Z,2.30
2023-04-15T04:47:17.679Z,2.30
2023-04-15T04:49:45.063Z,2.20
2023-04-15T04:52:12.638Z,2.30
2023-04-15T04:54:39.813Z,2.30
2023-04-15T04:57:07.005Z,2.40
2023-04-15T04:59:34.484Z,2.30
2023-04-15T05:02:01.942Z,2.40
2023-04-15T05:04:29.215Z,2.40
2023-04-15T05:06:56.412Z,2.30
2023-04-15T05:09:23.766Z,2.30
2023-04-15T05:11:50.946Z,2.30
2023-04-15T05:14:18.201Z,2.30
2023-04-15T05:16:45.552Z,2.30
2023-04-15T05:19:12.720Z,2.30
2023-04-15T05:21:40.024Z,2.30
2023-04-15T05:24:07.331Z,2.40
2023-04-15T05:26:34.516Z,2.40
2023-04-15T05:29:02.156Z,2.30
2023-04-15T05:31:30.061Z,2.20
2023-04-15T05:33:57.422Z,2.20
2023-04-15T05:36:24.781Z,2.30
2023-04-15T05:38:54.334Z,2.30
2023-04-15T05:41:21.833Z,2.30
2023-04-15T05:43:49.070Z,2.40
2023-04-15T05:46:16.510Z,2.30
2023-04-15T05:48:43.716Z,2.40
2023-04-15T05:51:11.110Z,2.30
2023-04-15T05:53:38.454Z,2.40
2023-04-15T05:56:05.800Z,2.40
2023-04-15T05:58:33.112Z,2.50
2023-04-15T06:01:00.506Z,2.50
2023-04-15T06:03:27.809Z,2.50
2023-04-15T06:05:55.256Z,2.50
2023-04-15T06:08:22.568Z,2.50
2023-04-15T06:10:49.852Z,2.50
2023-04-15T06:13:17.476Z,2.60
2023-04-15T06:15:44.846Z,2.70
2023-04-15T06:18:12.304Z,2.70
2023-04-15T06:20:41.963Z,2.70
2023-04-15T06:23:09.485Z,2.80
2023-04-15T06:25:36.715Z,2.80
2023-04-15T06:28:04.280Z,2.90
2023-04-15T06:30:31.908Z,2.80
2023-04-15T06:32:59.285Z,2.90
2023-04-15T06:35:28.177Z,3.00
2023-04-15T06:37:55.398Z,2.90
2023-04-15T06:40:22.753Z,3.00
2023-04-15T06:42:50.004Z,3.10
2023-04-15T06:45:17.347Z,3.00
2023-04-15T06:47:45.810Z,3.00
2023-04-15T06:50:12.994Z,3.00
2023-04-15T06:52:40.484Z,3.10
2023-04-15T06:55:08.421Z,3.10
2023-04-15T06:57:35.745Z,3.10
2023-04-15T07:00:03.756Z,3.20
2023-04-15T07:02:31.522Z,3.30
2023-04-15T07:05:02.463Z,3.30
2023-04-15T07:07:31.279Z,3.30
2023-04-15T07:09:59.804Z,3.30
2023-04-15T07:12:26.952Z,3.40
2023-04-15T07:14:54.126Z,3.40
2023-04-15T07:17:22.379Z,3.50
2023-04-15T07:19:49.656Z,3.50
2023-04-15T07:22:17.057Z,3.60
2023-04-15T07:24:44.758Z,3.70
2023-04-15T07:27:12.378Z,3.70
2023-04-15T07:29:39.536Z,3.70
2023-04-15T07:32:06.775Z,3.70
2023-04-15T07:34:34.068Z,3.80
2023-04-15T07:37:01.269Z,3.70
2023-04-15T07:39:28.420Z,3.80
2023-04-15T07:41:55.804Z,3.80
2023-04-15T07:44:23.126Z,3.80
2023-04-15T07:46:50.331Z,3.80
2023-04-15T07:49:17.569Z,3.90
2023-04-15T07:51:44.862Z,3.90
2023-04-15T07:54:12.018Z,3.90
2023-04-15T07:56:39.180Z,4.00
2023-04-15T07:59:06.403Z,4.00
2023-04-15T08:01:33.734Z,4.00
2023-04-15T08:04:01.235Z,4.00
2023-04-15T08:06:28.514Z,4.00
2023-04-15T08:08:55.804Z,4.10
2023-04-15T08:11:23.144Z,4.20
2023-04-15T08:13:50.524Z,4.20
2023-04-15T08:16:23.761Z,4.20
2023-04-15T08:18:53.981Z,4.30
2023-04-15T08:21:21.550Z,4.30
2023-04-15T08:23:51.525Z,4.40
2023-04-15T08:26:20.767Z,4.40
2023-04-15T08:28:49.223Z,4.50
2023-04-15T08:31:18.561Z,4.50
2023-04-15T08:33:46.785Z,4.60
2023-04-15T08:36:14.048Z,4.60
2023-04-15T08:38:41.306Z,4.60
2023-04-15T08:41:25.384Z,4.70
2023-04-15T08:44:06.793Z,4.80
2023-04-15T08:46:34.139Z,4.90
2023-04-15T08:49:05.132Z,4.90
2023-04-15T08:51:33.020Z,5.00
2023-04-15T08:54:02.074Z,5.10
2023-04-15T08:56:33.045Z,5.10
2023-04-15T08:59:01.402Z,5.20
2023-04-15T09:01:29.629Z,5.20
2023-04-15T09:03:59.043Z,5.30
2023-04-15T09:06:26.852Z,5.30
2023-04-15T09:08:54.188Z,5.30
2023-04-15T09:11:22.905Z,5.30
2023-04-15T09:13:50.750Z,5.30
2023-04-15T09:16:18.113Z,5.30
2023-04-15T09:18:45.518Z,5.40
2023-04-15T09:21:16.514Z,5.50
2023-04-15T09:24:01.705Z,5.50
2023-04-15T09:26:39.147Z,5.50
2023-04-15T09:29:12.912Z,5.50
2023-04-15T09:31:41.498Z,5.50
2023-04-15T09:34:09.218Z,5.50
2023-04-15T09:36:55.212Z,5.60
2023-04-15T09:39:22.554Z,5.70
2023-04-15T09:42:08.778Z,5.80
2023-04-15T09:44:36.100Z,5.70
2023-04-15T09:47:03.305Z,5.80
2023-04-15T09:49:30.521Z,5.80
2023-04-15T09:52:06.147Z,5.90
2023-04-15T09:54:38.709Z,5.90
2023-04-15T09:57:09.705Z,5.90
2023-04-15T09:59:36.887Z,6.00
2023-04-15T10:02:07.434Z,6.00
2023-04-15T10:04:40.512Z,6.00
2023-04-15T10:07:09.595Z,6.10
2023-04-15T10:09:39.461Z,6.20
2023-04-15T10:12:06.960Z,6.30
2023-04-15T10:14:38.575Z,6.40
2023-04-15T10:17:07.976Z,6.50
2023-04-15T10:19:38.430Z,6.50
2023-04-15T10:22:07.010Z,6.60
2023-04-15T10:24:35.081Z,6.70
2023-04-15T10:27:05.223Z,6.80
2023-04-15T10:29:32.848Z,6.70
2023-04-15T10:32:01.672Z,6.70
2023-04-15T10:34:31.876Z,6.70
2023-04-15T10:37:02.985Z,6.70
2023-04-15T10:39:38.048Z,6.70
2023-04-15T10:42:14.421Z,6.80
2023-04-15T10:44:50.931Z,6.80
2023-04-15T10:47:21.481Z,6.70
2023-04-15T10:49:58.132Z,6.70
2023-04-15T10:52:28.539Z,6.70
2023-04-15T10:55:10.815Z,6.70
2023-04-15T10:57:42.919Z,6.70
2023-04-15T11:00:18.872Z,6.70
2023-04-15T11:02:59.304Z,6.70
2023-04-15T11:05:53.009Z,6.70
2023-04-15T11:08:40.939Z,6.60
2023-04-15T11:11:08.395Z,6.70
2023-04-15T11:13:35.704Z,6.70
2023-04-15T11:16:03.945Z,6.80
2023-04-15T11:18:33.840Z,6.80
2023-04-15T11:21:04.858Z,6.70
2023-04-15T11:23:43.370Z,6.80
2023-04-15T11:26:11.535Z,6.80
2023-04-15T11:28:44.653Z,6.80
2023-04-15T11:31:17.219Z,6.80
2023-04-15T11:33:56.705Z,6.80
2023-04-15T11:36:30.107Z,6.90
2023-04-15T11:38:59.626Z,6.90
2023-04-15T11:41:27.201Z,6.90
2023-04-15T11:43:54.593Z,6.90
2023-04-15T11:46:29.138Z,6.90
2023-04-15T11:48:56.349Z,7.00
2023-04-15T11:51:23.973Z,7.00
2023-04-15T11:53:51.711Z,7.00
2023-04-15T11:56:22.142Z,7.10
2023-04-15T11:58:55.715Z,7.10
2023-04-15T12:01:41.417Z,7.10
2023-04-15T12:04:18.665Z,7.10
2023-04-15T12:06:47.474Z,7.20
2023-04-15T12:09:18.773Z,7.20
2023-04-15T12:11:52.917Z,7.20
2023-04-15T12:14:29.799Z,7.30
2023-04-15T12:17:04.387Z,7.30
2023-04-15T12:19:40.417Z,7.30
2023-04-15T12:22:11.526Z,7.40
2023-04-15T12:24:40.275Z,7.50
2023-04-15T12:27:11.486Z,7.50
2023-04-15T12:29:41.380Z,7.60
2023-04-15T12:32:10.937Z,7.60
2023-04-15T12:34:44.766Z,7.60
2023-04-15T12:37:13.131Z,7.70
2023-04-15T12:39:43.158Z,7.60
2023-04-15T12:42:12.148Z,7.60
2023-04-15T12:44:40.321Z,7.50
2023-04-15T12:47:10.060Z,7.60
2023-04-15T12:49:39.919Z,7.60
2023-04-15T12:52:07.650Z,7.70
2023-04-15T12:54:34.953Z,7.60
2023-04-15T12:57:07.441Z,7.70
2023-04-15T12:59:36.068Z,7.80
2023-04-15T13:02:04.342Z,8.00
2023-04-15T13:04:31.891Z,8.00
2023-04-15T13:06:59.449Z,8.00
2023-04-15T13:09:26.860Z,8.00
2023-04-15T13:11:54.621Z,7.80
2023-04-15T13:14:22.050Z,7.60
2023-04-15T13:16:49.442Z,7.60
2023-04-15T13:19:16.760Z,7.60
2023-04-15T13:21:44.129Z,7.70
2023-04-15T13:24:11.372Z,7.70
2023-04-15T13:26:38.620Z,7.60
2023-04-15T13:29:05.909Z,7.60
2023-04-15T13:31:33.304Z,7.60
2023-04-15T13:34:00.876Z,7.50
2023-04-15T13:36:28.359Z,7.60
2023-04-15T13:38:55.642Z,7.60
2023-04-15T13:41:22.946Z,7.70
2023-04-15T13:43:50.182Z,7.70
2023-04-15T13:46:17.557Z,7.70
2023-04-15T13:48:44.999Z,7.80
2023-04-15T13:51:12.197Z,7.80
2023-04-15T13:53:39.850Z,7.80
2023-04-15T13:56:10.693Z,7.80
2023-04-15T13:58:38.530Z,7.80
2023-04-15T14:01:07.417Z,7.90
2023-04-15T14:03:36.175Z,8.00
2023-04-15T14:06:05.251Z,8.00
2023-04-15T14:08:33.517Z,8.00
2023-04-15T14:11:00.906Z,8.10
2023-04-15T14:13:28.354Z,8.20
2023-04-15T14:15:57.496Z,8.30
2023-04-15T14:18:24.901Z,8.30
2023-04-15T14:20:52.168Z,8.40
2023-04-15T14:23:19.706Z,8.60
2023-04-15T14:25:48.288Z,8.60
2023-04-15T14:28:16.592Z,8.90
2023-04-15T14:30:44.034Z,8.90
2023-04-15T14:33:11.464Z,8.80
2023-04-15T14:35:39.367Z,8.70
2023-04-15T14:38:06.560Z,8.50
2023-04-15T14:40:34.224Z,8.40
2023-04-15T14:43:01.570Z,8.40
2023-04-15T14:45:30.508Z,8.30
2023-04-15T14:50:26.348Z,8.20
2023-04-15T14:52:53.799Z,8.10
2023-04-15T14:55:20.954Z,8.00
2023-04-15T14:57:48.337Z,8.00
2023-04-15T15:00:16.452Z,8.00
2023-04-15T15:02:44.115Z,7.90
2023-04-15T15:05:12.150Z,7.90
2023-04-15T15:07:40.196Z,7.90
2023-04-15T15:10:09.091Z,7.90
2023-04-15T15:12:36.428Z,7.90
2023-04-15T15:15:12.162Z,7.80
2023-04-15T15:17:43.566Z,7.90
2023-04-15T15:20:11.260Z,7.90
2023-04-15T15:22:38.643Z,7.90
2023-04-15T15:25:06.449Z,7.90
2023-04-15T15:27:33.798Z,7.80
2023-04-15T15:30:01.505Z,7.80
2023-04-15T15:32:29.137Z,7.70
2023-04-15T15:34:56.584Z,7.80
2023-04-15T15:37:23.942Z,7.70
2023-04-15T15:39:53.632Z,7.70
2023-04-15T15:42:20.886Z,7.60
2023-04-15T15:44:48.128Z,7.60
2023-04-15T15:47:21.269Z,7.70
2023-04-15T15:49:48.844Z,7.90
2023-04-15T15:52:16.290Z,7.90
2023-04-15T15:54:43.626Z,8.10
2023-04-15T15:57:11.430Z,8.20
2023-04-15T15:59:38.699Z,8.10
2023-04-15T16:02:06.057Z,8.20
2023-04-15T16:04:33.513Z,8.10
2023-04-15T16:07:00.910Z,7.90
2023-04-15T16:09:28.269Z,7.80
2023-04-15T16:11:55.621Z,7.80
2023-04-15T16:14:24.582Z,7.60
2023-04-15T16:16:53.323Z,7.50
2023-04-15T16:19:21.657Z,7.50
2023-04-15T16:21:49.313Z,7.40
2023-04-15T16:24:16.667Z,7.30
2023-04-15T16:26:43.839Z,7.20
2023-04-15T16:29:11.197Z,7.20
2023-04-15T16:31:38.601Z,7.20
2023-04-15T16:34:06.508Z,7.10
2023-04-15T16:36:36.733Z,7.10
2023-04-15T16:39:04.397Z,7.10
2023-04-15T16:41:34.308Z,7.10
2023-04-15T16:44:02.315Z,7.10
2023-04-15T16:46:29.746Z,7.00
2023-04-15T16:48:57.379Z,7.00
2023-04-15T16:51:24.659Z,6.90
2023-04-15T16:53:51.883Z,6.90
2023-04-15T16:56:19.793Z,6.90
2023-04-15T16:58:47.137Z,6.80
2023-04-15T17:01:14.743Z,6.80
2023-04-15T17:03:42.214Z,6.70
2023-04-15T17:06:10.201Z,6.70
2023-04-15T17:08:37.933Z,6.60
2023-04-15T17:11:05.796Z,6.60
2023-04-15T17:13:33.094Z,6.60
2023-04-15T17:16:01.071Z,6.60
2023-04-15T17:18:29.167Z,6.60
2023-04-15T17:20:57.215Z,6.60
2023-04-15T17:23:25.854Z,6.60
2023-04-15T17:25:53.826Z,6.50
2023-04-15T17:28:21.658Z,6.50
2023-04-15T17:30:49.148Z,6.50
2023-04-15T17:33:54.049Z,6.40
2023-04-15T17:36:04.679Z,6.40
2023-04-15T17:38:32.603Z,6.30
2023-04-15T17:41:00.408Z,6.30
2023-04-15T17:43:27.725Z,6.30
2023-04-15T17:45:56.199Z,6.20
2023-04-15T17:48:26.226Z,6.10
2023-04-15T17:50:53.885Z,6.10
2023-04-15T17:53:21.366Z,6.00
2023-04-15T17:55:48.670Z,6.00
2023-04-15T17:58:15.874Z,5.90
2023-04-15T18:00:43.218Z,5.90
2023-04-15T18:03:10.694Z,5.80
2023-04-15T18:05:40.323Z,5.70
2023-04-15T18:08:09.960Z,5.60
2023-04-15T18:10:40.006Z,5.50
2023-04-15T18:13:07.376Z,5.50
2023-04-15T18:15:35.318Z,5.50
2023-04-15T18:18:03.506Z,5.30
2023-04-15T18:20:30.994Z,5.30
2023-04-15T18:22:58.263Z,5.20
2023-04-15T18:25:26.235Z,5.20
2023-04-15T18:27:55.586Z,5.10
2023-04-15T18:30:23.121Z,5.10
2023-04-15T18:32:50.485Z,5.00
2023-04-15T18:35:17.767Z,4.90
2023-04-15T18:37:45.097Z,4.80
2023-04-15T18:40:12.403Z,4.80
2023-04-15T18:42:39.834Z,4.70
2023-04-15T18:45:07.849Z,4.70
2023-04-15T18:47:35.264Z,4.60
2023-04-15T18:50:02.740Z,4.60
2023-04-15T18:52:30.658Z,4.50
2023-04-15T18:54:58.205Z,4.40
2023-04-15T18:57:31.075Z,4.50
2023-04-15T19:00:02.714Z,4.50
2023-04-15T19:02:30.073Z,4.40
2023-04-15T19:04:57.390Z,4.40
2023-04-15T19:07:24.915Z,4.40
2023-04-15T19:09:53.239Z,4.30
2023-04-15T19:12:20.454Z,4.30
2023-04-15T19:14:47.847Z,4.30
2023-04-15T19:17:15.476Z,4.30
2023-04-15T19:19:42.921Z,4.20
2023-04-15T19:22:10.448Z,4.10
2023-04-15T19:24:37.802Z,4.10
2023-04-15T19:27:05.042Z,4.10
2023-04-15T19:29:32.874Z,4.20
2023-04-15T19:32:00.255Z,4.20
2023-04-15T19:34:27.600Z,4.20
2023-04-15T19:36:54.877Z,4.10
2023-04-15T19:39:22.176Z,4.00
2023-04-15T19:41:49.397Z,3.90
2023-04-15T19:44:16.836Z,3.80
2023-04-15T19:46:44.095Z,3.80
2023-04-15T19:49:11.704Z,3.70
2023-04-15T19:51:38.961Z,3.70
2023-04-15T19:54:06.489Z,3.60
2023-04-15T19:56:34.550Z,3.50
2023-04-15T19:59:02.289Z,3.40
2023-04-15T20:01:29.692Z,3.40
2023-04-15T20:03:57.295Z,3.40
2023-04-15T20:06:24.786Z,3.40
2023-04-15T20:08:52.446Z,3.30
2023-04-15T20:11:19.896Z,3.30
2023-04-15T20:13:47.100Z,3.30
2023-04-15T20:16:14.532Z,3.20
2023-04-15T20:18:42.817Z,3.10
2023-04-15T20:21:10.689Z,3.00
2023-04-15T20:23:38.112Z,3.00
2023-04-15T20:26:05.387Z,2.90
2023-04-15T20:28:32.920Z,2.90
2023-04-15T20:31:03.726Z,3.00
2023-04-15T20:33:31.094Z,2.90
2023-04-15T20:35:58.606Z,2.80
2023-04-15T20:38:25.895Z,2.70
2023-04-15T20:40:53.239Z,2.60
2023-04-15T20:43:20.659Z,2.60
2023-04-15T20:45:49.185Z,2.50
2023-04-15T20:48:16.480Z,2.60
2023-04-15T20:50:43.645Z,2.60
2023-04-15T20:53:10.899Z,2.50
2023-04-15T20:55:38.305Z,2.40
2023-04-15T20:58:05.535Z,2.40
2023-04-15T21:00:32.990Z,2.40
2023-04-15T21:03:00.476Z,2.50
2023-04-15T21:05:27.940Z,2.50
2023-04-15T21:07:55.392Z,2.30
2023-04-15T21:10:22.839Z,2.20
2023-04-15T21:12:50.097Z,2.20
2023-04-15T21:15:17.694Z,2.20
2023-04-15T21:17:44.944Z,2.20
2023-04-15T21:20:12.673Z,2.20
2023-04-15T21:22:39.953Z,2.10
2023-04-15T21:25:07.833Z,2.10
2023-04-15T21:27:35.445Z,2.00
2023-04-15T21:32:31.213Z,2.00
2023-04-15T21:34:58.429Z,2.00
2023-04-15T21:37:25.658Z,2.10
2023-04-15T21:39:52.936Z,2.00
2023-04-15T21:42:20.213Z,1.90
2023-04-15T21:44:47.378Z,1.90
2023-04-15T21:47:14.721Z,1.80
2023-04-15T21:49:42.154Z,1.60
2023-04-15T21:52:10.237Z,1.70
2023-04-15T21:54:37.900Z,1.70
2023-04-15T21:57:05.227Z,1.80
2023-04-15T21:59:32.401Z,1.70
2023-04-15T22:14:17.750Z,1.70
2023-04-15T22:16:45.120Z,1.60
2023-04-15T22:19:12.470Z,1.40
2023-04-15T22:21:39.701Z,1.40
2023-04-15T22:24:32.074Z,1.50
2023-04-15T22:26:54.426Z,1.50
2023-04-15T22:29:22.358Z,1.40
2023-04-15T22:31:49.559Z,1.40
2023-04-15T22:34:17.024Z,1.40
2023-04-15T22:36:44.295Z,1.50
2023-04-15T22:39:11.460Z,1.40
2023-04-15T22:41:38.654Z,1.20
2023-04-15T22:44:05.876Z,1.30
2023-04-15T22:46:33.537Z,1.20
2023-04-15T22:49:00.924Z,1.20
2023-04-15T22:51:28.566Z,1.30
2023-04-15T22:53:56.331Z,1.20
2023-04-15T22:56:23.802Z,1.10
2023-04-15T22:58:52.083Z,1.10
2023-04-15T23:01:19.617Z,1.20
2023-04-15T23:03:56.242Z,1.20
2023-04-15T23:06:30.362Z,1.20
2023-04-15T23:08:57.590Z,1.20
2023-04-15T23:11:24.957Z,1.10
2023-04-15T23:13:52.355Z,1.10
2023-04-15T23:16:19.609Z,1.10
2023-04-15T23:18:46.829Z,1.00
2023-04-15T23:21:14.297Z,1.00
2023-04-15T23:23:41.472Z,0.90
2023-04-15T23:26:09.365Z,0.90
2023-04-15T23:28:36.510Z,1.10
2023-04-15T23:31:03.813Z,1.10
2023-04-15T23:33:31.109Z,1.00
2023-04-15T23:35:58.442Z,0.90
2023-04-15T23:38:25.641Z,1.00
2023-04-15T23:40:52.987Z,1.00
2023-04-15T23:43:20.520Z,0.90
2023-04-15T23:45:47.969Z,0.90
2023-04-15T23:48:15.227Z,0.90
2023-04-15T23:50:42.430Z,0.80
2023-04-15T23:53:09.684Z,0.90
2023-04-15T23:55:36.908Z,0.80
2023-04-15T23:58:04.104Z,0.70
